Time;durP1;ratioP1;P1;durP2;ratioP2;P2;SDS_P1;SDS_P2;PMS_P1;PMS_P2;Temp;Humidity;BMP_temperature;BMP_pressure;BME280_temperature;BME280_humidity;BME280_pressure;Samples;Min_cycle;Max_cycle;Signal;HPM_P1;HPM_P2
2021/08/05 00:01:02;;;;;;;9.18;6.23;;;;;;;14.68;84.62;100323.05;258325;1096;114897;-73
2021/08/05 00:06:04;;;;;;;7.47;5.87;;;;;;;14.74;85.35;100322.30;257991;1095;114388;-73
2021/08/05 00:11:06;;;;;;;6.78;6.20;;;;;;;14.78;85.11;100312.95;258696;1096;113423;-73
2021/08/05 00:16:11;;;;;;;6.93;6.38;;;;;;;14.73;85.19;100317.99;258587;1096;114285;-75
2021/08/05 00:21:29;;;;;;;6.78;6.28;;;;;;;14.58;84.99;100309.16;258956;1095;114596;-73
2021/08/05 00:26:31;;;;;;;6.95;6.35;;;;;;;14.50;85.08;100306.59;259303;1096;114759;-73
2021/08/05 00:31:33;;;;;;;6.40;5.08;;;;;;;14.64;82.74;100300.47;258791;1096;115265;-73
2021/08/05 00:36:36;;;;;;;5.55;5.10;;;;;;;14.57;82.38;100305.69;258544;1096;114853;-61
2021/08/05 00:41:38;;;;;;;5.73;5.28;;;;;;;14.42;83.99;100297.64;258269;1096;114725;-74
2021/08/05 00:46:45;;;;;;;6.45;5.83;;;;;;;14.31;84.65;100290.09;258387;1096;113530;-77
2021/08/05 00:56:58;;;;;;;7.33;6.20;;;;;;;14.42;83.34;100291.50;258115;1096;114115;-73
2021/08/05 01:02:19;;;;;;;7.43;6.68;;;;;;;14.29;83.85;100289.46;258470;1095;115049;-73
2021/08/05 01:07:29;;;;;;;7.38;6.70;;;;;;;14.19;84.43;100281.72;258843;1095;114756;-73
2021/08/05 01:12:37;;;;;;;6.20;5.65;;;;;;;14.16;84.92;100283.94;258191;1096;114730;-73
2021/08/05 01:17:58;;;;;;;7.33;6.43;;;;;;;14.11;84.14;100268.50;258835;1096;114491;-75
2021/08/05 01:23:27;;;;;;;6.28;5.73;;;;;;;14.07;84.97;100274.36;258563;1096;114664;-73
2021/08/05 01:28:31;;;;;;;7.30;6.17;;;;;;;14.06;84.80;100270.06;258577;1096;114424;-74
2021/08/05 01:33:36;;;;;;;9.33;5.73;;;;;;;13.98;84.37;100268.29;258067;1096;114308;-74
2021/08/05 01:38:40;;;;;;;;;;;;;;;13.99;84.74;100264.63;258697;1096;114503;-74
2021/08/05 01:43:48;;;;;;;7.30;5.35;;;;;;;13.98;84.49;100261.14;257816;1096;103124;-74
2021/08/05 01:48:53;;;;;;;6.85;6.15;;;;;;;13.89;84.57;100264.88;259065;1096;114456;-72
2021/08/05 01:53:55;;;;;;;6.37;5.10;;;;;;;13.88;84.83;100262.38;258726;1096;114248;-73
2021/08/05 01:58:59;;;;;;;7.33;6.63;;;;;;;13.93;84.04;100270.66;258907;1095;114288;-75
2021/08/05 02:04:11;;;;;;;7.25;6.55;;;;;;;13.86;84.27;100273.20;258233;1096;114765;-72
2021/08/05 02:09:26;;;;;;;8.18;7.38;;;;;;;13.85;84.38;100262.76;258502;1097;114776;-73
2021/08/05 02:14:30;;;;;;;9.78;6.95;;;;;;;13.84;84.75;100266.39;258345;1096;114340;-73
2021/08/05 02:19:33;;;;;;;8.60;7.80;;;;;;;13.79;84.29;100272.25;258155;1096;114395;-72
2021/08/05 02:24:35;;;;;;;7.98;7.28;;;;;;;13.72;84.56;100265.98;258128;1095;114414;-75
2021/08/05 02:29:42;;;;;;;11.28;8.18;;;;;;;13.70;84.74;100260.03;257994;1095;114652;-74
2021/08/05 02:34:49;;;;;;;8.90;7.33;;;;;;;13.61;84.19;100264.58;257786;1096;114608;-72
2021/08/05 02:39:51;;;;;;;8.53;7.70;;;;;;;13.65;84.22;100268.53;258631;1096;114483;-73
2021/08/05 02:44:56;;;;;;;8.93;7.28;;;;;;;13.64;84.17;100266.03;259362;1096;114680;-72
2021/08/05 02:50:01;;;;;;;7.38;6.68;;;;;;;13.64;84.77;100260.73;258767;1095;114880;-74
2021/08/05 02:55:04;;;;;;;7.58;6.88;;;;;;;13.60;84.84;100256.77;258250;1096;114836;-73
2021/08/05 03:00:12;;;;;;;6.95;6.15;;;;;;;13.69;84.75;100268.98;259099;1096;114499;-72
2021/08/05 03:05:20;;;;;;;6.45;5.95;;;;;;;13.66;84.93;100264.05;258950;1095;114705;-73
2021/08/05 03:10:22;;;;;;;6.98;6.20;;;;;;;13.74;85.15;100256.02;258855;1095;115041;-72
2021/08/05 03:15:24;;;;;;;6.55;5.85;;;;;;;13.78;84.64;100252.01;257385;1095;114831;-72
2021/08/05 03:20:27;;;;;;;6.08;5.58;;;;;;;13.82;85.16;100241.86;258301;1096;114450;-73
2021/08/05 03:25:29;;;;;;;6.45;5.85;;;;;;;13.86;85.03;100233.34;257440;1096;114883;-72
2021/08/05 03:30:31;;;;;;;5.18;4.78;;;;;;;13.90;85.60;100233.81;259177;1096;114744;-73
2021/08/05 03:35:33;;;;;;;5.85;5.35;;;;;;;13.92;85.72;100237.93;258261;1095;114632;-74
2021/08/05 03:40:42;;;;;;;6.65;6.05;;;;;;;14.03;85.73;100228.72;258799;1094;114729;-75
2021/08/05 03:45:44;;;;;;;6.65;6.05;;;;;;;14.20;85.42;100234.73;258441;1095;115201;-72
2021/08/05 03:50:47;;;;;;;6.70;5.98;;;;;;;14.24;86.03;100230.70;258121;1096;114858;-72
2021/08/05 03:55:51;;;;;;;6.68;5.68;;;;;;;14.41;85.91;100237.50;258550;1096;114759;-73
2021/08/05 04:00:53;;;;;;;6.25;5.75;;;;;;;14.43;86.40;100239.96;259301;1095;114717;-75
2021/08/05 04:05:56;;;;;;;6.80;6.20;;;;;;;14.50;86.67;100245.42;260290;1095;114834;-73
2021/08/05 04:10:58;;;;;;;7.28;6.68;;;;;;;14.63;86.42;100246.45;259624;1096;115355;-72
2021/08/05 04:16:01;;;;;;;6.78;6.28;;;;;;;14.72;86.28;100247.18;257674;1096;114997;-73
2021/08/05 04:21:06;;;;;;;6.80;6.30;;;;;;;14.75;86.18;100228.20;257452;1096;115664;-72
2021/08/05 04:26:08;;;;;;;6.95;6.25;;;;;;;14.74;86.47;100242.48;256859;1096;114223;-71
2021/08/05 04:31:10;;;;;;;7.10;6.40;;;;;;;14.72;86.70;100235.72;256867;1096;114321;-71
2021/08/05 04:36:13;;;;;;;7.55;6.85;;;;;;;14.82;86.39;100234.44;257156;1096;114746;-71
2021/08/05 04:41:15;;;;;;;7.03;6.43;;;;;;;14.91;86.35;100233.32;256897;1096;114474;-71
2021/08/05 04:46:17;;;;;;;7.23;6.68;;;;;;;14.98;86.25;100232.56;257258;1095;114820;-73
2021/08/05 04:51:20;;;;;;;7.93;7.23;;;;;;;14.91;86.42;100238.64;258156;1096;114953;-71
2021/08/05 04:56:22;;;;;;;8.13;7.30;;;;;;;14.95;86.41;100239.92;257841;1095;114446;-74
2021/08/05 05:01:24;;;;;;;7.53;6.37;;;;;;;15.06;86.34;100243.13;258701;1095;114447;-73
2021/08/05 05:06:27;;;;;;;7.58;6.88;;;;;;;15.13;85.99;100244.02;259323;1095;114266;-73
2021/08/05 05:11:30;;;;;;;8.13;7.43;;;;;;;15.17;85.93;100231.98;258367;1096;115441;-72
2021/08/05 05:16:34;;;;;;;7.90;7.28;;;;;;;15.18;85.92;100236.31;258767;1096;114949;-73
2021/08/05 05:21:41;;;;;;;8.20;7.60;;;;;;;15.23;85.86;100233.91;257676;1095;114453;-74
2021/08/05 05:26:43;;;;;;;7.27;6.63;;;;;;;15.31;85.93;100228.47;258376;1096;114629;-72
2021/08/05 05:31:46;;;;;;;8.38;7.68;;;;;;;15.42;85.41;100225.31;258067;1096;114430;-74
2021/08/05 05:36:48;;;;;;;8.23;7.63;;;;;;;15.50;85.33;100226.22;258449;1096;114505;-74
2021/08/05 05:41:50;;;;;;;8.85;8.08;;;;;;;15.56;85.40;100225.44;258376;1095;114416;-74
2021/08/05 05:46:55;;;;;;;9.40;8.60;;;;;;;15.67;85.33;100228.45;258687;1096;114492;-74
2021/08/05 05:52:21;;;;;;;9.15;8.35;;;;;;;15.82;85.04;100216.92;259853;1096;115070;-73
2021/08/05 05:57:23;;;;;;;8.85;8.03;;;;;;;16.00;84.92;100206.63;257671;1096;114702;-72
2021/08/05 06:02:25;;;;;;;10.97;10.07;;;;;;;16.07;84.77;100211.98;258079;1096;116429;-72
2021/08/05 06:07:27;;;;;;;9.35;8.65;;;;;;;16.00;84.78;100213.80;257851;1096;114800;-72
2021/08/05 06:12:31;;;;;;;9.73;8.70;;;;;;;16.01;84.76;100210.12;258193;1095;114972;-74
2021/08/05 06:17:42;;;;;;;9.48;8.68;;;;;;;16.08;84.39;100203.00;258607;1096;114724;-72
2021/08/05 06:22:47;;;;;;;9.80;8.90;;;;;;;16.16;84.47;100195.67;258456;1095;115248;-75
2021/08/05 06:27:50;;;;;;;;;;;;;;;16.13;84.25;100195.23;258710;1095;114429;-74
2021/08/05 06:32:55;;;;;;;9.65;8.85;;;;;;;16.12;84.34;100193.59;258281;1096;103083;-73
2021/08/05 06:37:57;;;;;;;9.78;8.53;;;;;;;16.14;84.05;100188.88;258411;1096;114921;-73
2021/08/05 06:43:03;;;;;;;8.70;7.73;;;;;;;16.19;83.82;100173.14;258961;1096;115197;-76
2021/08/05 06:48:09;;;;;;;8.60;7.70;;;;;;;16.26;83.48;100179.31;258711;1096;115242;-72
2021/08/05 06:53:11;;;;;;;9.25;8.43;;;;;;;16.20;83.41;100174.78;259674;1095;114719;-74
2021/08/05 06:58:14;;;;;;;7.70;7.00;;;;;;;16.18;83.45;100171.47;259131;1096;114614;-73
2021/08/05 07:03:17;;;;;;;6.50;6.00;;;;;;;16.22;83.16;100172.72;258697;1096;114808;-74
2021/08/05 07:08:19;;;;;;;8.20;6.15;;;;;;;16.27;82.17;100164.98;260357;1096;114373;-72
2021/08/05 07:13:21;;;;;;;6.55;6.00;;;;;;;16.33;81.79;100174.03;259573;1095;114523;-72
2021/08/05 07:18:23;;;;;;;6.28;5.68;;;;;;;16.36;81.75;100153.13;259870;1096;114999;-73
2021/08/05 07:23:25;;;;;;;6.23;5.63;;;;;;;16.35;82.05;100156.83;259189;1095;114555;-73
2021/08/05 07:28:28;;;;;;;5.93;5.37;;;;;;;16.41;81.53;100164.02;259907;1095;114989;-74
2021/08/05 07:33:31;;;;;;;6.23;5.20;;;;;;;16.53;80.80;100158.95;258011;1096;114441;-73
2021/08/05 07:38:33;;;;;;;5.08;4.68;;;;;;;16.66;80.80;100155.55;257370;1096;114486;-73
2021/08/05 07:43:40;;;;;;;4.78;4.40;;;;;;;16.69;79.80;100152.46;259101;1095;114429;-74
2021/08/05 07:48:46;;;;;;;5.20;4.80;;;;;;;16.73;79.78;100152.89;256411;1096;114607;-74
2021/08/05 07:53:48;;;;;;;6.43;4.80;;;;;;;16.76;79.65;100158.69;256537;1096;114601;-74
2021/08/05 07:58:51;;;;;;;4.43;4.08;;;;;;;16.84;78.72;100145.16;257704;1095;114576;-74
2021/08/05 08:03:53;;;;;;;4.70;4.40;;;;;;;16.85;78.78;100130.82;257050;1095;115196;-74
2021/08/05 08:08:55;;;;;;;6.85;4.50;;;;;;;16.85;78.55;100132.64;257185;1096;114561;-74
2021/08/05 08:14:06;;;;;;;5.48;3.83;;;;;;;16.83;77.75;100127.52;257428;1096;115364;-74
2021/08/05 08:19:13;;;;;;;5.20;3.28;;;;;;;16.90;77.26;100125.69;258125;1096;113327;-73
2021/08/05 08:24:15;;;;;;;3.83;3.53;;;;;;;16.94;76.90;100125.30;258529;1096;114203;-73
2021/08/05 08:29:17;;;;;;;6.35;3.93;;;;;;;16.94;77.10;100117.29;258594;1095;116387;-71
2021/08/05 08:34:19;;;;;;;4.05;3.65;;;;;;;17.01;77.46;100112.80;258128;1095;115043;-75
2021/08/05 08:39:23;;;;;;;4.15;3.78;;;;;;;17.06;77.19;100115.67;259031;1095;114894;-73
2021/08/05 08:44:29;;;;;;;3.00;2.80;;;;;;;17.07;77.16;100110.12;258319;1096;115601;-74
2021/08/05 08:49:37;;;;;;;2.88;2.68;;;;;;;17.08;76.29;100097.58;259231;1096;114159;-74
2021/08/05 08:54:43;;;;;;;5.13;3.30;;;;;;;17.09;76.59;100101.92;259969;1094;114497;-76
2021/08/05 08:59:46;;;;;;;2.95;2.65;;;;;;;17.09;76.88;100104.59;258776;1096;114973;-74
2021/08/05 09:04:49;;;;;;;3.60;2.68;;;;;;;17.09;76.28;100107.27;258901;1096;116468;-73
2021/08/05 09:09:52;;;;;;;2.53;2.30;;;;;;;17.02;76.66;100099.23;258801;1095;115053;-73
2021/08/05 09:14:57;;;;;;;2.38;2.18;;;;;;;16.99;76.23;100094.29;258444;1096;114517;-75
2021/08/05 09:20:03;;;;;;;3.03;1.98;;;;;;;17.05;75.87;100088.16;257663;1096;114718;-70
2021/08/05 09:25:18;;;;;;;2.30;1.93;;;;;;;17.06;75.88;100088.97;258745;1097;114374;-76
2021/08/05 09:30:38;;;;;;;2.87;2.50;;;;;;;17.06;76.63;100097.80;258372;1096;114616;-73
2021/08/05 09:35:42;;;;;;;3.25;2.50;;;;;;;17.12;77.04;100088.14;258112;1096;114398;-61
2021/08/05 09:40:44;;;;;;;;;;;;;;;17.15;77.10;100093.91;258474;1096;114737;-75
2021/08/05 09:45:46;;;;;;;4.85;2.68;;;;;;;17.11;77.66;100095.33;259401;1096;103062;-77
2021/08/05 09:50:49;;;;;;;5.50;3.00;;;;;;;17.12;77.99;100093.48;258386;1096;114567;-74
2021/08/05 09:56:11;;;;;;;2.88;2.58;;;;;;;17.17;78.81;100090.23;258138;1096;115557;-60
2021/08/05 10:01:13;;;;;;;3.10;2.80;;;;;;;17.26;79.60;100084.47;258813;1096;114822;-74
2021/08/05 10:06:15;;;;;;;3.77;3.40;;;;;;;17.27;79.88;100080.77;258623;1095;114891;-73
2021/08/05 10:11:17;;;;;;;6.23;3.55;;;;;;;17.24;80.42;100077.68;259718;1095;114049;-75
2021/08/05 10:16:38;;;;;;;3.88;3.48;;;;;;;17.28;80.49;100076.24;259233;1096;115053;-73
2021/08/05 10:21:41;;;;;;;5.73;3.83;;;;;;;17.37;80.59;100070.52;259376;1096;114412;-74
2021/08/05 10:26:44;;;;;;;3.93;3.60;;;;;;;17.43;80.91;100068.86;259442;1095;114559;-74
2021/08/05 10:31:47;;;;;;;5.75;4.05;;;;;;;17.40;80.98;100058.60;258257;1096;114622;-74
2021/08/05 10:36:50;;;;;;;5.18;4.78;;;;;;;17.38;81.14;100044.61;259127;1095;114786;-74
2021/08/05 10:42:05;;;;;;;5.73;4.48;;;;;;;17.48;81.03;100041.55;260689;1094;114633;-78
2021/08/05 10:47:11;;;;;;;4.87;4.50;;;;;;;17.63;80.63;100044.79;258398;1096;114738;-73
2021/08/05 10:52:38;;;;;;;5.20;4.70;;;;;;;17.70;80.18;100040.27;258954;1096;114643;-74
2021/08/05 10:57:40;;;;;;;5.53;4.35;;;;;;;17.72;80.12;100050.77;259020;1094;172660;-73
2021/08/05 11:02:54;;;;;;;7.58;5.90;;;;;;;17.68;80.54;100054.88;258569;1095;114915;-75
2021/08/05 11:08:09;;;;;;;;;;;;;;;17.66;79.76;100056.92;259333;1096;115046;-74
2021/08/05 11:13:11;;;;;;;6.33;5.73;;;;;;;17.75;79.81;100056.55;258830;1095;103025;-73
2021/08/05 11:18:16;;;;;;;5.98;5.00;;;;;;;17.79;79.75;100048.94;258234;1095;114607;-74
2021/08/05 11:23:29;;;;;;;6.83;4.70;;;;;;;17.70;79.48;100053.63;258457;1095;114749;-72
2021/08/05 11:28:33;;;;;;;7.03;6.43;;;;;;;17.74;79.56;100038.00;258722;1096;114688;-74
2021/08/05 11:39:06;;;;;;;4.53;4.13;;;;;;;17.96;79.49;100036.75;259767;1095;114467;-74
2021/08/05 11:44:41;;;;;;;5.95;4.73;;;;;;;18.05;79.17;100034.66;258852;1094;115159;-74
2021/08/05 11:50:01;;;;;;;4.03;3.73;;;;;;;17.92;78.84;100029.36;259196;1095;114875;-73
2021/08/05 11:55:17;;;;;;;4.80;4.40;;;;;;;17.81;79.19;100023.63;258495;1096;114768;-73
2021/08/05 12:00:25;;;;;;;4.65;4.10;;;;;;;17.87;79.36;100021.98;258666;1096;115093;-75
2021/08/05 12:05:36;;;;;;;7.08;3.83;;;;;;;17.93;79.31;100020.30;259471;1096;114872;-75
2021/08/05 12:10:43;;;;;;;3.60;3.40;;;;;;;18.02;79.32;100002.98;258583;1096;114437;-74
2021/08/05 12:15:52;;;;;;;4.85;3.28;;;;;;;18.02;78.80;100009.19;259139;1096;114450;-73
2021/08/05 12:21:06;;;;;;;3.58;3.25;;;;;;;17.92;78.18;99995.42;258563;1096;114571;-75
2021/08/05 12:26:17;;;;;;;3.73;3.00;;;;;;;17.88;78.48;99995.02;258765;1096;114324;-72
2021/08/05 12:31:23;;;;;;;3.75;3.00;;;;;;;17.88;77.80;99980.84;258006;1095;114603;-74
2021/08/05 12:36:26;;;;;;;3.10;2.90;;;;;;;17.86;76.89;99980.21;259305;1096;114370;-73
2021/08/05 12:41:35;;;;;;;2.95;2.75;;;;;;;17.78;76.93;99973.24;259016;1095;114308;-76
2021/08/05 12:46:42;;;;;;;3.20;2.90;;;;;;;17.79;77.11;99972.23;258883;1096;114783;-74
2021/08/05 12:51:45;;;;;;;3.18;2.98;;;;;;;17.85;77.35;99968.70;258709;1096;114277;-73
2021/08/05 12:56:57;;;;;;;3.65;3.35;;;;;;;17.93;77.52;99956.14;259064;1096;114293;-75
2021/08/05 13:02:05;;;;;;;3.53;3.33;;;;;;;17.88;77.35;99938.06;258955;1095;114749;-75
2021/08/05 13:07:14;;;;;;;3.78;3.48;;;;;;;17.90;77.07;99940.51;259100;1096;114756;-73
2021/08/05 13:12:25;;;;;;;3.90;3.60;;;;;;;17.96;76.34;99931.66;259706;1095;114661;-74
2021/08/05 13:17:36;;;;;;;3.70;3.40;;;;;;;18.05;76.86;99919.67;260234;1096;114385;-75
2021/08/05 13:22:49;;;;;;;3.35;3.05;;;;;;;18.07;76.73;99914.95;260155;1096;115250;-74
2021/08/05 13:28:20;;;;;;;3.60;3.30;;;;;;;18.09;76.43;99913.67;259384;1095;114294;-75
2021/08/05 13:33:27;;;;;;;3.00;2.75;;;;;;;18.08;74.28;99900.53;259273;1096;118314;-74
2021/08/05 13:38:49;;;;;;;3.08;2.88;;;;;;;18.05;74.10;99895.60;259613;1096;114253;-78
2021/08/05 13:43:51;;;;;;;3.43;3.20;;;;;;;17.95;73.23;99884.56;258728;1096;114403;-74
2021/08/05 13:54:04;;;;;;;3.50;3.30;;;;;;;17.88;74.62;99889.94;258599;1095;114122;-73
2021/08/05 13:59:06;;;;;;;3.70;3.40;;;;;;;17.93;74.13;99873.25;258874;1095;114787;-74
2021/08/05 14:04:10;;;;;;;3.70;3.40;;;;;;;17.88;74.14;99874.72;257875;1095;114760;-75
2021/08/05 14:09:12;;;;;;;3.65;3.38;;;;;;;17.82;73.91;99866.72;257506;1095;114449;-76
2021/08/05 14:14:18;;;;;;;;;;;;;;;17.72;73.99;99859.14;257890;1096;114259;-75
2021/08/05 14:19:21;;;;;;;3.60;3.38;;;;;;;17.73;74.00;99855.42;258098;1095;103034;-74
2021/08/05 14:24:23;;;;;;;3.63;3.33;;;;;;;17.77;73.70;99856.67;257855;1095;114513;-74
2021/08/05 14:29:29;;;;;;;4.38;4.08;;;;;;;17.78;74.81;99847.61;258189;1094;114476;-74
2021/08/05 14:34:35;;;;;;;4.25;3.95;;;;;;;17.76;75.00;99848.88;258198;1096;114310;-74
2021/08/05 14:39:37;;;;;;;4.30;3.88;;;;;;;17.64;75.12;99829.98;258410;1095;114389;-74
2021/08/05 14:44:39;;;;;;;4.35;3.95;;;;;;;17.66;75.12;99833.25;257606;1096;114602;-74
2021/08/05 14:49:41;;;;;;;4.23;3.90;;;;;;;17.67;74.62;99826.89;258377;1095;114680;-74
2021/08/05 14:54:45;;;;;;;3.60;3.30;;;;;;;17.70;74.54;99822.95;257696;1096;114378;-73
2021/08/05 14:59:49;;;;;;;3.78;3.38;;;;;;;17.63;75.24;99817.63;259664;1090;114686;-74
2021/08/05 15:04:52;;;;;;;4.10;3.70;;;;;;;17.56;75.66;99827.56;257748;1096;114868;-78
2021/08/05 15:09:54;;;;;;;5.60;3.95;;;;;;;17.53;76.18;99822.63;258464;1096;114764;-78
2021/08/05 15:14:57;;;;;;;3.73;3.53;;;;;;;17.56;76.94;99816.88;257097;1095;114748;-74
2021/08/05 15:20:00;;;;;;;4.40;3.50;;;;;;;17.54;77.35;99817.06;257580;1095;214271;-76
2021/08/05 15:25:02;;;;;;;4.05;3.75;;;;;;;17.50;77.97;99825.72;257170;1096;117197;-75
2021/08/05 15:30:05;;;;;;;5.18;3.95;;;;;;;17.35;78.62;99816.11;257235;1096;114226;-73
2021/08/05 15:35:08;;;;;;;4.03;3.60;;;;;;;17.28;79.42;99799.31;257645;1095;114670;-74
2021/08/05 15:40:15;;;;;;;4.45;4.00;;;;;;;17.29;80.11;99795.60;257530;1096;115402;-74
2021/08/05 15:45:17;;;;;;;4.60;4.30;;;;;;;17.30;79.98;99802.58;257262;1096;114728;-73
2021/08/05 15:50:19;;;;;;;4.35;4.05;;;;;;;17.21;80.19;99798.52;257530;1096;114939;-74
2021/08/05 15:55:22;;;;;;;4.05;3.75;;;;;;;17.13;80.70;99796.89;257340;1095;115199;-74
2021/08/05 16:00:24;;;;;;;4.23;3.93;;;;;;;17.11;80.51;99790.11;257498;1095;115563;-74
2021/08/05 16:05:26;;;;;;;4.43;4.03;;;;;;;17.16;80.68;99792.96;257999;1095;114613;-73
2021/08/05 16:10:29;;;;;;;3.73;3.53;;;;;;;17.12;80.63;99778.39;257697;1095;114276;-75
2021/08/05 16:15:31;;;;;;;4.15;3.85;;;;;;;17.14;80.99;99771.82;257816;1096;114325;-73
2021/08/05 16:20:33;;;;;;;4.53;4.23;;;;;;;17.05;81.26;99756.27;257632;1096;115873;-76
2021/08/05 16:25:36;;;;;;;4.23;3.78;;;;;;;17.01;81.47;99755.05;257737;1095;114706;-75
2021/08/05 16:30:40;;;;;;;4.68;3.93;;;;;;;17.03;81.34;99758.31;257948;1095;114716;-74
2021/08/05 16:35:44;;;;;;;4.20;3.90;;;;;;;17.01;81.78;99747.85;257911;1095;114754;-74
2021/08/05 16:40:47;;;;;;;4.78;4.48;;;;;;;16.98;81.79;99744.78;257918;1096;114851;-74
2021/08/05 16:45:49;;;;;;;5.40;5.00;;;;;;;16.90;82.11;99738.64;257991;1096;115034;-74
2021/08/05 16:50:51;;;;;;;5.78;5.38;;;;;;;16.86;82.54;99725.93;258542;1095;114408;-73
2021/08/05 16:55:54;;;;;;;5.63;5.13;;;;;;;16.95;82.25;99705.16;258272;1096;116302;-74
2021/08/05 17:00:56;;;;;;;7.30;6.70;;;;;;;16.91;82.67;99691.41;257797;1096;114241;-74
2021/08/05 17:05:58;;;;;;;6.43;5.90;;;;;;;16.88;82.84;99687.30;257648;1096;114369;-75
2021/08/05 17:11:00;;;;;;;7.63;6.53;;;;;;;16.84;83.20;99674.59;257855;1096;115650;-75
2021/08/05 17:16:02;;;;;;;6.70;6.20;;;;;;;16.88;82.85;99660.61;257796;1096;114821;-75
2021/08/05 17:21:06;;;;;;;7.27;6.67;;;;;;;16.94;82.87;99674.98;257793;1096;114762;-73
2021/08/05 17:26:13;;;;;;;6.03;5.43;;;;;;;17.00;82.87;99660.77;257683;1095;114757;-75
2021/08/05 17:31:16;;;;;;;6.45;5.85;;;;;;;16.84;83.34;99664.73;257562;1096;115563;-75
2021/08/05 17:36:18;;;;;;;6.65;6.05;;;;;;;16.92;83.61;99649.52;257709;1095;115306;-76
2021/08/05 17:41:21;;;;;;;6.23;5.73;;;;;;;16.90;83.39;99645.22;257668;1096;114476;-76
2021/08/05 17:46:23;;;;;;;6.68;6.18;;;;;;;17.00;82.97;99628.73;258888;1096;114454;-75
2021/08/05 17:51:25;;;;;;;6.08;5.68;;;;;;;17.02;82.30;99618.67;259632;1096;114921;-73
2021/08/05 17:56:27;;;;;;;6.50;6.00;;;;;;;16.95;82.55;99606.39;258138;1095;114436;-74
2021/08/05 18:01:29;;;;;;;6.57;6.07;;;;;;;16.92;83.19;99601.47;257835;1096;114226;-77
2021/08/05 18:06:32;;;;;;;8.18;6.10;;;;;;;16.90;82.91;99599.84;257622;1095;114318;-76
2021/08/05 18:11:34;;;;;;;6.08;5.45;;;;;;;16.90;82.70;99597.17;257882;1096;114786;-74
2021/08/05 18:16:40;;;;;;;7.03;6.37;;;;;;;16.94;82.65;99591.41;257764;1096;115703;-76
2021/08/05 18:21:46;;;;;;;7.73;5.88;;;;;;;16.93;82.20;99592.42;257671;1096;114290;-74
2021/08/05 18:26:49;;;;;;;7.10;6.50;;;;;;;16.84;82.79;99579.33;257954;1096;114267;-75
2021/08/05 18:31:51;;;;;;;5.88;5.38;;;;;;;16.85;82.88;99575.66;257854;1096;114668;-74
2021/08/05 18:36:53;;;;;;;6.93;5.68;;;;;;;16.86;82.55;99566.61;257546;1095;114550;-73
2021/08/05 18:41:56;;;;;;;5.68;5.15;;;;;;;16.91;82.46;99563.29;257730;1096;114616;-74
2021/08/05 18:47:00;;;;;;;4.70;4.30;;;;;;;16.87;82.65;99568.23;257753;1095;114484;-74
2021/08/05 18:52:03;;;;;;;5.58;5.08;;;;;;;16.77;82.69;99541.22;257736;1096;114442;-77
2021/08/05 18:57:10;;;;;;;5.75;4.40;;;;;;;16.80;82.59;99540.77;258414;1095;115474;-77
2021/08/05 19:02:20;;;;;;;4.25;3.78;;;;;;;16.84;82.63;99530.48;259905;1095;114975;-79
2021/08/05 19:07:26;;;;;;;4.05;3.75;;;;;;;16.85;82.30;99519.61;259079;1096;114206;-74
2021/08/05 19:12:32;;;;;;;4.40;4.10;;;;;;;16.83;82.25;99502.98;257625;1096;114213;-77
2021/08/05 19:25:42;;;;;;;5.75;4.43;;;;;;;16.80;81.85;99484.72;260275;1092;102935;-77
2021/08/05 19:30:44;;;;;;;3.80;3.50;;;;;;;16.83;81.73;99484.30;258398;1091;113700;-61
2021/08/05 19:35:46;;;;;;;3.73;3.43;;;;;;;16.83;81.44;99470.95;258265;1093;113977;-77
2021/08/05 19:40:49;;;;;;;3.28;3.08;;;;;;;16.78;81.08;99465.45;257748;1093;113778;-74
2021/08/05 19:45:51;;;;;;;2.93;2.73;;;;;;;16.72;81.69;99458.27;258140;1093;113848;-75
2021/08/05 19:50:53;;;;;;;3.00;2.80;;;;;;;16.71;80.86;99461.98;257848;1093;114140;-75
2021/08/05 19:55:57;;;;;;;3.55;3.25;;;;;;;16.74;80.51;99466.92;258895;1093;114124;-76
2021/08/05 20:00:59;;;;;;;3.38;3.03;;;;;;;16.75;79.82;99455.20;259340;1092;114689;-74
2021/08/05 20:06:04;;;;;;;2.85;2.65;;;;;;;16.72;79.67;99430.77;259140;1093;114418;-80
2021/08/05 20:11:06;;;;;;;2.80;2.60;;;;;;;16.64;79.58;99434.52;258476;1093;114173;-75
2021/08/05 20:16:08;;;;;;;2.50;2.35;;;;;;;16.65;79.41;99436.96;258096;1092;114574;-76
2021/08/05 20:21:12;;;;;;;3.03;2.83;;;;;;;16.69;79.33;99425.86;258660;1092;114079;-76
2021/08/05 20:26:18;;;;;;;2.73;2.53;;;;;;;16.70;79.27;99425.66;259440;1093;114997;-75
2021/08/05 20:31:24;;;;;;;4.73;2.40;;;;;;;16.65;79.55;99433.48;258603;1092;113897;-76
2021/08/05 20:36:26;;;;;;;2.45;2.33;;;;;;;16.56;79.68;99426.78;259709;1093;114889;-73
2021/08/05 20:41:28;;;;;;;2.58;2.38;;;;;;;16.55;80.03;99419.81;258593;1093;114278;-75
2021/08/05 20:46:36;;;;;;;2.40;2.25;;;;;;;16.59;79.70;99416.50;258867;1093;113914;-74
2021/08/05 20:51:47;;;;;;;2.08;1.98;;;;;;;16.61;79.35;99413.60;260664;1093;114015;-75
2021/08/05 20:56:50;;;;;;;5.60;5.05;;;;;;;16.59;79.71;99408.50;258739;1093;114478;-74
2021/08/05 21:01:52;;;;;;;3.63;2.85;;;;;;;16.55;80.32;99414.48;258334;1096;113936;-75
2021/08/05 21:06:54;;;;;;;2.70;2.30;;;;;;;16.47;81.16;99407.56;258285;1092;114100;-73
2021/08/05 21:11:56;;;;;;;5.28;3.13;;;;;;;16.52;81.21;99388.23;258901;1093;115564;-72
2021/08/05 21:16:59;;;;;;;3.20;2.83;;;;;;;16.45;81.72;99387.46;259505;1093;114250;-76
2021/08/05 21:22:07;;;;;;;3.55;2.70;;;;;;;16.40;82.21;99375.59;259123;1093;114580;-73
2021/08/05 21:27:09;;;;;;;3.10;2.80;;;;;;;16.28;83.31;99366.65;258435;1093;114366;-74
2021/08/05 21:32:12;;;;;;;3.70;2.63;;;;;;;16.29;83.28;99357.61;260012;1090;113879;-75
2021/08/05 21:37:18;;;;;;;6.55;4.60;;;;;;;16.34;83.23;99348.95;259825;1093;114646;-76
2021/08/05 21:42:23;;;;;;;3.95;3.13;;;;;;;16.29;83.39;99336.28;258905;1092;114580;-73
2021/08/05 21:47:25;;;;;;;3.53;2.53;;;;;;;16.29;83.47;99330.95;258922;1093;114097;-75
2021/08/05 21:52:29;;;;;;;4.38;3.18;;;;;;;16.20;83.79;99332.25;258625;1093;114381;-74
2021/08/05 21:57:35;;;;;;;4.28;2.90;;;;;;;16.19;84.32;99330.63;258156;1092;113952;-75
2021/08/05 22:02:40;;;;;;;3.63;3.00;;;;;;;16.15;84.26;99316.09;258666;1093;113925;-75
2021/08/05 22:07:47;;;;;;;5.68;3.13;;;;;;;16.18;84.28;99302.31;258221;1093;113919;-73
2021/08/05 22:12:49;;;;;;;3.65;2.53;;;;;;;16.18;84.10;99297.80;257441;1093;113976;-75
2021/08/05 22:17:54;;;;;;;2.93;2.70;;;;;;;16.09;84.40;99287.63;258526;1092;114063;-75
2021/08/05 22:23:01;;;;;;;3.85;3.48;;;;;;;15.95;85.20;99278.08;258318;1093;113882;-73
2021/08/05 22:28:07;;;;;;;5.07;3.80;;;;;;;15.98;85.10;99266.99;258625;1093;114212;-74
2021/08/05 22:33:09;;;;;;;6.05;4.10;;;;;;;15.95;85.35;99256.76;258289;1093;113871;-74
2021/08/05 22:38:11;;;;;;;5.90;3.98;;;;;;;15.99;85.14;99240.11;258277;1093;114535;-74
2021/08/05 22:43:14;;;;;;;4.07;3.67;;;;;;;16.02;84.81;99228.22;257833;1093;114024;-74
2021/08/05 22:48:16;;;;;;;3.20;3.00;;;;;;;15.98;84.44;99211.03;259530;1093;114396;-74
2021/08/05 22:53:18;;;;;;;4.45;3.83;;;;;;;15.93;84.90;99198.36;257963;1093;114538;-73
2021/08/05 22:58:20;;;;;;;4.58;3.05;;;;;;;15.93;85.20;99177.86;258115;1093;114543;-73
2021/08/05 23:03:23;;;;;;;3.90;3.10;;;;;;;15.97;84.85;99161.44;258163;1093;113907;-75
2021/08/05 23:08:29;;;;;;;3.15;2.83;;;;;;;15.95;84.85;99158.97;258099;1092;114563;-74
2021/08/05 23:13:34;;;;;;;4.00;2.50;;;;;;;15.92;85.01;99146.92;257527;1092;114238;-76
2021/08/05 23:18:40;;;;;;;3.60;2.58;;;;;;;15.89;85.39;99138.55;259561;1093;113945;-72
2021/08/05 23:23:42;;;;;;;2.73;2.40;;;;;;;15.89;85.22;99133.22;258926;1092;114731;-73
2021/08/05 23:28:45;;;;;;;2.28;2.10;;;;;;;15.88;85.10;99121.75;259673;1093;114068;-74
2021/08/05 23:33:48;;;;;;;6.68;2.60;;;;;;;15.90;85.46;99124.18;258067;1092;113908;-73
2021/08/05 23:38:50;;;;;;;2.53;2.33;;;;;;;15.95;85.44;99115.52;257663;1091;114110;-72